createdAt,value
2022-10-30T00:00:22.409Z,98943.83
2022-10-30T00:01:44.114Z,98948.96
2022-10-30T00:02:48.879Z,98953.86
2022-10-30T00:03:50.616Z,98948.13
2022-10-30T00:04:53.251Z,98957.84
2022-10-30T00:05:55.297Z,98960.49
2022-10-30T00:06:57.066Z,98954.70
2022-10-30T00:08:00.089Z,98957.41
2022-10-30T00:09:02.121Z,98957.33
2022-10-30T00:10:04.247Z,98954.22
2022-10-30T00:11:11.228Z,98954.05
2022-10-30T00:12:14.108Z,98951.70
2022-10-30T00:13:16.553Z,98948.77
2022-10-30T00:14:18.392Z,98953.00
2022-10-30T00:15:20.040Z,98953.05
2022-10-30T00:16:21.803Z,98949.81
2022-10-30T00:17:23.697Z,98952.90
2022-10-30T00:18:25.684Z,98956.36
2022-10-30T00:19:27.342Z,98953.50
2022-10-30T00:20:29.669Z,98951.41
2022-10-30T00:21:31.324Z,98947.06
2022-10-30T00:22:32.972Z,98942.19
2022-10-30T00:23:35.239Z,98936.64
2022-10-30T00:24:37.714Z,98934.27
2022-10-30T00:25:39.519Z,98934.58
2022-10-30T00:26:41.343Z,98939.90
2022-10-30T00:27:43.020Z,98946.33
2022-10-30T00:28:44.911Z,98944.40
2022-10-30T00:29:46.561Z,98943.73
2022-10-30T00:30:48.216Z,98939.34
2022-10-30T00:31:49.852Z,98935.81
2022-10-30T00:32:51.516Z,98941.27
2022-10-30T00:33:55.079Z,98948.77
2022-10-30T00:34:56.764Z,98950.96
2022-10-30T00:35:58.653Z,98943.17
2022-10-30T00:37:00.338Z,98937.38
2022-10-30T00:38:02.409Z,98930.09
2022-10-30T00:39:05.618Z,98929.20
2022-10-30T00:40:08.012Z,98929.45
2022-10-30T00:41:18.850Z,98930.48
2022-10-30T00:42:20.655Z,98931.41
2022-10-30T00:43:39.703Z,98935.70
2022-10-30T00:44:49.692Z,98939.52
2022-10-30T00:45:51.468Z,98939.20
2022-10-30T00:46:53.208Z,98938.05
2022-10-30T00:48:02.760Z,98939.65
2022-10-30T00:49:16.188Z,98942.28
2022-10-30T00:50:29.854Z,98944.95
2022-10-30T00:51:33.903Z,98947.40
2022-10-30T00:52:41.867Z,98953.75
2022-10-30T00:53:44.972Z,98958.44
2022-10-30T00:54:47.397Z,98957.94
2022-10-30T00:55:57.097Z,98957.73
2022-10-30T00:57:01.203Z,98957.23
2022-10-30T00:58:07.863Z,98951.16
2022-10-30T00:59:13.709Z,98951.60
2022-10-30T01:00:17.297Z,98950.23
2022-10-30T01:01:25.220Z,98949.36
2022-10-30T01:02:27.621Z,98948.48
2022-10-30T01:03:31.701Z,98947.89
2022-10-30T01:04:38.289Z,98947.27
2022-10-30T01:05:42.047Z,98952.59
2022-10-30T01:06:48.491Z,98955.46
2022-10-30T01:07:50.192Z,98952.91
2022-10-30T01:08:58.849Z,98952.87
2022-10-30T01:10:02.416Z,98952.43
2022-10-30T01:11:05.224Z,98955.71
2022-10-30T01:12:07.570Z,98950.58
2022-10-30T01:13:11.079Z,98945.15
2022-10-30T01:14:19.064Z,98946.95
2022-10-30T01:15:30.485Z,98935.69
2022-10-30T01:16:47.684Z,98943.75
2022-10-30T01:17:56.459Z,98939.63
2022-10-30T01:19:05.329Z,98942.95
2022-10-30T01:20:31.979Z,98948.70
2022-10-30T01:22:04.111Z,98951.50
2022-10-30T01:23:16.872Z,98951.19
2022-10-30T01:24:34.975Z,98954.77
2022-10-30T01:25:45.967Z,98955.84
2022-10-30T01:27:11.952Z,98954.77
2022-10-30T01:28:32.591Z,98956.39
2022-10-30T01:29:48.999Z,98951.08
2022-10-30T01:31:16.897Z,98952.27
2022-10-30T01:32:41.742Z,98940.78
2022-10-30T01:34:00.374Z,98940.55
2022-10-30T01:35:17.531Z,98936.20
2022-10-30T01:36:46.034Z,98937.16
2022-10-30T01:38:17.403Z,98938.24
2022-10-30T01:39:25.460Z,98942.91
2022-10-30T01:40:27.191Z,98948.10
2022-10-30T01:41:29.910Z,98941.88
2022-10-30T01:42:56.791Z,98944.52
2022-10-30T01:44:09.163Z,98949.77
2022-10-30T01:45:55.347Z,98949.75
2022-10-30T01:47:34.580Z,98942.59
2022-10-30T01:48:57.424Z,98941.00
2022-10-30T01:50:22.137Z,98935.58
2022-10-30T01:51:38.498Z,98936.37
2022-10-30T01:53:01.999Z,98933.33
2022-10-30T01:54:37.839Z,98934.05
2022-10-30T01:55:58.115Z,98933.25
2022-10-30T01:56:59.737Z,98933.04
2022-10-30T01:58:11.865Z,98933.14
2022-10-30T01:59:59.959Z,98925.75
2022-10-30T02:01:02.722Z,98921.16
2022-10-30T02:02:05.299Z,98922.22
2022-10-30T02:03:07.858Z,98918.80
2022-10-30T02:04:13.503Z,98919.63
2022-10-30T02:05:37.689Z,98919.11
2022-10-30T02:06:40.695Z,98925.48
2022-10-30T02:07:42.885Z,98933.23
2022-10-30T02:08:44.713Z,98936.35
2022-10-30T02:09:46.788Z,98935.45
2022-10-30T02:10:52.452Z,98936.99
2022-10-30T02:12:04.257Z,98940.80
2022-10-30T02:13:06.393Z,98932.83
2022-10-30T02:14:10.976Z,98927.63
2022-10-30T02:15:13.138Z,98921.43
2022-10-30T02:16:15.033Z,98922.52
2022-10-30T02:17:19.137Z,98924.63
2022-10-30T02:18:20.976Z,98924.09
2022-10-30T02:19:22.710Z,98922.95
2022-10-30T02:20:24.766Z,98922.52
2022-10-30T02:21:27.001Z,98926.86
2022-10-30T02:22:29.303Z,98930.26
2022-10-30T02:23:31.235Z,98930.61
2022-10-30T02:24:33.019Z,98935.47
2022-10-30T02:25:35.247Z,98939.70
2022-10-30T02:26:37.331Z,98938.44
2022-10-30T02:27:39.019Z,98933.92
2022-10-30T02:28:43.820Z,98929.75
2022-10-30T02:29:45.908Z,98928.71
2022-10-30T02:30:47.613Z,98927.61
2022-10-30T02:31:49.710Z,98929.08
2022-10-30T02:32:52.073Z,98929.45
2022-10-30T02:33:53.747Z,98928.27
2022-10-30T02:34:55.470Z,98929.98
2022-10-30T02:35:57.507Z,98932.46
2022-10-30T02:36:59.651Z,98932.55
2022-10-30T02:38:02.310Z,98933.30
2022-10-30T02:39:04.210Z,98932.13
2022-10-30T02:40:08.265Z,98933.86
2022-10-30T02:41:11.647Z,98934.02
2022-10-30T02:42:13.648Z,98936.56
2022-10-30T02:43:15.745Z,98936.34
2022-10-30T02:44:18.015Z,98933.96
2022-10-30T02:45:22.077Z,98936.23
2022-10-30T02:46:23.965Z,98932.88
2022-10-30T02:47:25.674Z,98933.05
2022-10-30T02:48:27.411Z,98929.05
2022-10-30T02:49:29.097Z,98930.65
2022-10-30T02:50:30.757Z,98931.38
2022-10-30T02:51:32.976Z,98927.58
2022-10-30T02:52:34.659Z,98925.25
2022-10-30T02:53:36.607Z,98922.45
2022-10-30T02:54:38.367Z,98920.02
2022-10-30T02:55:40.143Z,98919.59
2022-10-30T02:56:41.947Z,98920.36
2022-10-30T02:57:43.655Z,98916.89
2022-10-30T02:58:45.553Z,98915.55
2022-10-30T02:59:47.219Z,98916.00
2022-10-30T03:00:49.102Z,98914.54
2022-10-30T03:01:50.986Z,98916.23
2022-10-30T03:02:57.253Z,98917.06
2022-10-30T03:03:59.182Z,98917.33
2022-10-30T03:05:00.845Z,98920.39
2022-10-30T03:06:05.401Z,98917.13
2022-10-30T03:07:07.103Z,98918.38
2022-10-30T03:08:10.118Z,98914.55
2022-10-30T03:09:11.820Z,98915.01
2022-10-30T03:10:13.502Z,98910.98
2022-10-30T03:11:18.198Z,98911.05
2022-10-30T03:12:22.189Z,98908.94
2022-10-30T03:13:23.902Z,98911.39
2022-10-30T03:14:26.724Z,98911.48
2022-10-30T03:15:28.405Z,98912.35
2022-10-30T03:16:30.756Z,98911.28
2022-10-30T03:17:32.608Z,98913.40
2022-10-30T03:18:35.065Z,98912.44
2022-10-30T03:19:41.952Z,98910.64
2022-10-30T03:20:43.735Z,98910.93
2022-10-30T03:21:45.609Z,98911.16
2022-10-30T03:22:47.822Z,98910.18
2022-10-30T03:23:53.041Z,98912.08
2022-10-30T03:24:54.726Z,98912.45
2022-10-30T03:25:58.572Z,98915.02
2022-10-30T03:27:00.372Z,98915.14
2022-10-30T03:28:02.134Z,98917.95
2022-10-30T03:29:04.012Z,98916.98
2022-10-30T03:30:07.007Z,98919.11
2022-10-30T03:31:11.502Z,98926.70
2022-10-30T03:32:14.771Z,98925.07
2022-10-30T03:33:21.173Z,98925.50
2022-10-30T03:34:22.790Z,98925.02
2022-10-30T03:35:24.454Z,98930.92
2022-10-30T03:36:26.932Z,98931.57
2022-10-30T03:37:28.717Z,98936.63
2022-10-30T03:38:30.456Z,98941.23
2022-10-30T03:39:32.249Z,98944.66
2022-10-30T03:40:35.227Z,98948.21
2022-10-30T03:41:36.907Z,98949.09
2022-10-30T03:42:41.349Z,98950.30
2022-10-30T03:43:43.543Z,98951.46
2022-10-30T03:44:45.544Z,98945.35
2022-10-30T03:45:49.458Z,98945.84
2022-10-30T03:46:51.687Z,98947.61
2022-10-30T03:48:05.755Z,98948.95
2022-10-30T03:49:07.436Z,98951.36
2022-10-30T03:50:09.460Z,98955.52
2022-10-30T03:51:11.211Z,98956.04
2022-10-30T03:52:13.051Z,98954.66
2022-10-30T03:53:15.575Z,98954.55
2022-10-30T03:54:18.434Z,98958.13
2022-10-30T03:55:20.289Z,98961.16
2022-10-30T03:56:22.025Z,98961.23
2022-10-30T03:57:26.543Z,98960.96
2022-10-30T03:58:50.272Z,98965.30
2022-10-30T03:59:55.011Z,98969.60
2022-10-30T04:01:16.631Z,98974.86
2022-10-30T04:02:21.422Z,98977.80
2022-10-30T04:03:23.179Z,98973.77
2022-10-30T04:04:24.911Z,98970.02
2022-10-30T04:05:28.054Z,98964.09
2022-10-30T04:06:30.936Z,98964.46
2022-10-30T04:07:32.659Z,98969.34
2022-10-30T04:08:34.503Z,98965.59
2022-10-30T04:09:37.026Z,98959.73
2022-10-30T04:10:45.434Z,98957.07
2022-10-30T04:11:47.436Z,98954.68
2022-10-30T04:12:49.474Z,98951.00
2022-10-30T04:13:51.181Z,98948.61
2022-10-30T04:14:53.791Z,98946.56
2022-10-30T04:15:57.898Z,98944.12
2022-10-30T04:17:00.238Z,98938.95
2022-10-30T04:18:02.520Z,98937.80
2022-10-30T04:19:04.717Z,98941.27
2022-10-30T04:20:07.265Z,98944.27
2022-10-30T04:21:08.915Z,98946.07
2022-10-30T04:22:10.708Z,98949.65
2022-10-30T04:23:18.640Z,98951.52
2022-10-30T04:24:20.301Z,98953.89
2022-10-30T04:25:23.949Z,98954.64
2022-10-30T04:26:26.008Z,98956.55
2022-10-30T04:27:27.704Z,98960.04
2022-10-30T04:28:29.359Z,98959.62
2022-10-30T04:29:31.836Z,98960.50
2022-10-30T04:30:35.403Z,98961.77
2022-10-30T04:31:37.353Z,98957.54
2022-10-30T04:32:48.817Z,98962.38
2022-10-30T04:33:50.504Z,98959.64
2022-10-30T04:34:53.352Z,98953.25
2022-10-30T04:35:56.219Z,98960.64
2022-10-30T04:36:57.886Z,98959.64
2022-10-30T04:38:05.588Z,98965.23
2022-10-30T04:39:09.851Z,98966.13
2022-10-30T04:40:12.048Z,98963.42
2022-10-30T04:41:23.722Z,98960.84
2022-10-30T04:42:33.391Z,98958.38
2022-10-30T04:43:35.117Z,98955.52
2022-10-30T04:44:36.823Z,98952.52
2022-10-30T04:45:39.709Z,98952.78
2022-10-30T04:46:41.655Z,98951.04
2022-10-30T04:47:45.355Z,98951.61
2022-10-30T04:48:47.087Z,98958.78
2022-10-30T04:49:48.988Z,98952.63
2022-10-30T04:50:51.562Z,98945.51
2022-10-30T04:51:57.652Z,98938.65
2022-10-30T04:53:04.377Z,98935.11
2022-10-30T04:54:06.091Z,98930.98
2022-10-30T04:55:10.241Z,98923.27
2022-10-30T04:56:12.400Z,98921.10
2022-10-30T04:57:14.083Z,98913.11
2022-10-30T04:58:16.566Z,98911.10
2022-10-30T04:59:20.100Z,98910.06
2022-10-30T05:00:22.375Z,98901.70
2022-10-30T05:01:24.494Z,98905.33
2022-10-30T05:02:26.488Z,98897.02
2022-10-30T05:03:28.546Z,98892.41
2022-10-30T05:04:30.262Z,98889.65
2022-10-30T05:05:32.786Z,98893.39
2022-10-30T05:06:34.516Z,98899.80
2022-10-30T05:07:36.355Z,98908.99
2022-10-30T05:08:38.526Z,98911.77
2022-10-30T05:09:49.023Z,98913.70
2022-10-30T05:10:50.730Z,98916.54
2022-10-30T05:11:54.922Z,98914.96
2022-10-30T05:13:00.662Z,98915.11
2022-10-30T05:14:02.343Z,98919.95
2022-10-30T05:15:04.672Z,98920.04
2022-10-30T05:16:08.722Z,98919.39
2022-10-30T05:17:10.443Z,98916.39
2022-10-30T05:18:12.867Z,98917.23
2022-10-30T05:19:14.882Z,98918.05
2022-10-30T05:20:22.269Z,98919.89
2022-10-30T05:21:24.070Z,98919.77
2022-10-30T05:22:25.800Z,98913.41
2022-10-30T05:23:27.779Z,98911.64
2022-10-30T05:24:29.565Z,98910.59
2022-10-30T05:25:31.792Z,98908.33
2022-10-30T05:26:34.774Z,98905.58
2022-10-30T05:27:36.475Z,98904.55
2022-10-30T05:28:38.158Z,98908.95
2022-10-30T05:29:40.076Z,98907.50
2022-10-30T05:30:41.804Z,98909.23
2022-10-30T05:31:51.036Z,98916.62
2022-10-30T05:33:12.166Z,98924.52
2022-10-30T05:34:13.975Z,98930.95
2022-10-30T05:35:16.281Z,98934.66
2022-10-30T05:36:18.392Z,98935.73
2022-10-30T05:37:20.109Z,98932.93
2022-10-30T05:38:21.907Z,98937.30
2022-10-30T05:39:24.969Z,98933.59
2022-10-30T05:40:27.140Z,98937.82
2022-10-30T05:41:29.908Z,98939.61
2022-10-30T05:42:32.198Z,98939.19
2022-10-30T05:43:36.259Z,98942.23
2022-10-30T05:44:59.365Z,98944.73
2022-10-30T05:46:00.621Z,98942.57
2022-10-30T05:47:02.725Z,98948.84
2022-10-30T05:48:07.565Z,98943.27
2022-10-30T05:49:15.203Z,98947.31
2022-10-30T05:50:17.151Z,98951.60
2022-10-30T05:51:29.100Z,98947.14
2022-10-30T05:52:32.018Z,98948.06
2022-10-30T05:53:34.494Z,98947.34
2022-10-30T05:54:37.655Z,98947.72
2022-10-30T05:55:46.958Z,98945.14
2022-10-30T05:56:54.394Z,98944.59
2022-10-30T05:57:57.851Z,98942.31
2022-10-30T05:58:59.685Z,98940.50
2022-10-30T06:00:01.899Z,98943.20
2022-10-30T06:01:07.297Z,98945.97
2022-10-30T06:02:19.417Z,98945.38
2022-10-30T06:03:21.719Z,98948.20
2022-10-30T06:04:23.846Z,98949.79
2022-10-30T06:05:26.856Z,98951.15
2022-10-30T06:06:28.563Z,98958.03
2022-10-30T06:07:30.300Z,98957.70
2022-10-30T06:08:32.081Z,98959.81
2022-10-30T06:09:36.984Z,98961.20
2022-10-30T06:10:54.959Z,98963.80
2022-10-30T06:12:20.329Z,98963.85
2022-10-30T06:14:18.042Z,98963.60
2022-10-30T06:15:23.947Z,98962.65
2022-10-30T06:16:25.930Z,98964.14
2022-10-30T06:18:15.315Z,98961.09
2022-10-30T06:19:20.051Z,98963.20
2022-10-30T06:20:27.259Z,98960.65
2022-10-30T06:21:48.230Z,98960.70
2022-10-30T06:23:01.828Z,98958.44
2022-10-30T06:24:14.445Z,98960.16
2022-10-30T06:25:22.180Z,98960.38
2022-10-30T06:26:32.373Z,98964.56
2022-10-30T06:27:40.135Z,98963.80
2022-10-30T06:28:42.089Z,98964.98
2022-10-30T06:29:43.925Z,98964.06
2022-10-30T06:30:45.871Z,98962.99
2022-10-30T06:31:47.571Z,98964.04
2022-10-30T06:32:49.546Z,98960.58
2022-10-30T06:33:51.523Z,98958.23
2022-10-30T06:34:55.069Z,98955.58
2022-10-30T06:35:56.952Z,98955.66
2022-10-30T06:36:58.769Z,98957.27
2022-10-30T06:38:01.569Z,98954.44
2022-10-30T06:39:05.356Z,98956.55
2022-10-30T06:40:17.559Z,98958.09
2022-10-30T06:41:41.338Z,98954.55
2022-10-30T06:42:56.317Z,98955.96
2022-10-30T06:44:11.311Z,98956.71
2022-10-30T06:45:14.566Z,98955.48
2022-10-30T06:46:17.016Z,98954.19
2022-10-30T06:47:19.170Z,98952.68
2022-10-30T06:48:20.869Z,98950.95
2022-10-30T06:49:26.785Z,98950.35
2022-10-30T06:50:29.323Z,98951.62
2022-10-30T06:51:32.243Z,98950.22
2022-10-30T06:52:35.610Z,98951.30
2022-10-30T06:53:37.971Z,98953.73
2022-10-30T06:55:09.833Z,98957.16
2022-10-30T06:57:01.988Z,98960.13
2022-10-30T06:58:21.971Z,98964.23
2022-10-30T06:59:30.614Z,98963.94
2022-10-30T07:01:13.447Z,98972.53
2022-10-30T07:02:33.829Z,98975.64
2022-10-30T07:03:40.658Z,98978.19
2022-10-30T07:04:43.138Z,98976.48
2022-10-30T07:05:44.950Z,98976.06
2022-10-30T07:06:46.881Z,98974.28
2022-10-30T07:07:48.795Z,98979.88
2022-10-30T07:08:50.514Z,98979.09
2022-10-30T07:09:52.367Z,98972.79
2022-10-30T07:10:59.576Z,98975.77
2022-10-30T07:12:35.114Z,98973.39
2022-10-30T07:13:56.341Z,98973.39
2022-10-30T07:15:15.010Z,98965.67
2022-10-30T07:16:28.181Z,98964.56
2022-10-30T07:17:30.043Z,98959.42
2022-10-30T07:18:35.782Z,98964.10
2022-10-30T07:19:37.844Z,98969.19
2022-10-30T07:20:40.730Z,98965.99
2022-10-30T07:21:42.577Z,98964.33
2022-10-30T07:22:45.541Z,98965.23
2022-10-30T07:23:47.239Z,98971.98
2022-10-30T07:24:57.948Z,98974.39
2022-10-30T07:26:49.198Z,98982.20
2022-10-30T07:28:09.208Z,98984.66
2022-10-30T07:29:16.442Z,98985.51
2022-10-30T07:30:22.465Z,98988.33
2022-10-30T07:32:13.871Z,98987.61
2022-10-30T07:33:27.215Z,98989.38
2022-10-30T07:34:34.981Z,98990.33
2022-10-30T07:35:55.267Z,98987.73
2022-10-30T07:37:15.512Z,98988.59
2022-10-30T07:38:24.120Z,98988.49
2022-10-30T07:39:31.321Z,98986.48
2022-10-30T07:40:54.458Z,98984.81
2022-10-30T07:42:49.060Z,98988.80
2022-10-30T07:44:06.070Z,98991.17
2022-10-30T07:45:22.375Z,98988.70
2022-10-30T07:46:42.490Z,98989.00
2022-10-30T07:48:41.027Z,98992.63
2022-10-30T07:49:54.025Z,98992.34
2022-10-30T07:50:55.824Z,98991.48
2022-10-30T07:51:57.504Z,98991.87
2022-10-30T07:52:59.633Z,98988.23
2022-10-30T07:54:04.099Z,98988.04
2022-10-30T07:55:08.342Z,98984.54
2022-10-30T07:56:32.927Z,98983.88
2022-10-30T07:58:24.334Z,98977.39
2022-10-30T07:59:50.818Z,98971.91
2022-10-30T08:01:14.402Z,98972.30
2022-10-30T08:02:17.624Z,98969.49
2022-10-30T08:04:00.512Z,98964.02
2022-10-30T08:05:05.905Z,98960.49
2022-10-30T08:06:20.150Z,98948.88
2022-10-30T08:07:31.359Z,98940.21
2022-10-30T08:08:33.387Z,98938.35
2022-10-30T08:09:43.279Z,98938.63
2022-10-30T08:10:44.990Z,98941.38
2022-10-30T08:11:46.680Z,98954.34
2022-10-30T08:12:49.052Z,98965.85
2022-10-30T08:13:51.241Z,98979.45
2022-10-30T08:14:53.679Z,98981.73
2022-10-30T08:15:55.547Z,98985.25
2022-10-30T08:16:57.535Z,98990.23
2022-10-30T08:18:00.150Z,98990.02
2022-10-30T08:19:02.824Z,98986.86
2022-10-30T08:20:04.843Z,98984.73
2022-10-30T08:21:06.555Z,98980.65
2022-10-30T08:22:09.045Z,98985.11
2022-10-30T08:23:10.974Z,98990.17
2022-10-30T08:24:12.688Z,98990.17
2022-10-30T08:25:18.738Z,98993.25
2022-10-30T08:26:20.455Z,98996.26
2022-10-30T08:27:22.390Z,98990.64
2022-10-30T08:28:28.270Z,98992.75
2022-10-30T08:29:34.862Z,98996.60
2022-10-30T08:30:38.034Z,99000.98
2022-10-30T08:31:40.250Z,99007.29
2022-10-30T08:32:59.240Z,99011.59
2022-10-30T08:34:34.633Z,99016.66
2022-10-30T08:35:48.020Z,99014.72
2022-10-30T08:36:54.118Z,99016.23
2022-10-30T08:38:02.871Z,99014.20
2022-10-30T08:39:04.949Z,99013.31
2022-10-30T08:40:19.875Z,99009.95
2022-10-30T08:41:32.694Z,99004.81
2022-10-30T08:42:34.467Z,98998.08
2022-10-30T08:43:36.835Z,98994.91
2022-10-30T08:44:42.036Z,98986.45
2022-10-30T08:46:13.085Z,98984.25
2022-10-30T08:47:24.944Z,98977.61
2022-10-30T08:48:28.112Z,98974.46
2022-10-30T08:49:29.842Z,98974.47
2022-10-30T08:50:34.284Z,98972.45
2022-10-30T08:51:35.939Z,98979.73
2022-10-30T08:52:37.752Z,98977.06
2022-10-30T08:53:39.691Z,98979.38
2022-10-30T08:54:44.931Z,98980.02
2022-10-30T08:55:46.860Z,98980.15
2022-10-30T08:56:55.643Z,98982.71
2022-10-30T08:57:58.793Z,98982.55
2022-10-30T08:59:00.838Z,98984.23
2022-10-30T09:00:02.838Z,98985.95
2022-10-30T09:01:27.394Z,98989.08
2022-10-30T09:02:47.515Z,98991.87
2022-10-30T09:04:21.627Z,98992.23
2022-10-30T09:05:49.644Z,98989.42
2022-10-30T09:07:12.098Z,98990.85
2022-10-30T09:08:33.298Z,98991.00
2022-10-30T09:09:37.609Z,98990.77
2022-10-30T09:10:40.342Z,98990.36
2022-10-30T09:11:44.514Z,98985.52
2022-10-30T09:12:46.242Z,98984.77
2022-10-30T09:13:48.524Z,98982.70
2022-10-30T09:14:50.208Z,98981.95
2022-10-30T09:15:52.679Z,98984.67
2022-10-30T09:16:55.060Z,98984.34
2022-10-30T09:18:03.258Z,98983.55
2022-10-30T09:19:05.590Z,98982.70
2022-10-30T09:20:07.624Z,98981.88
2022-10-30T09:21:10.872Z,98988.46
2022-10-30T09:22:17.797Z,98989.35
2022-10-30T09:23:19.480Z,98989.15
2022-10-30T09:24:23.401Z,98994.14
2022-10-30T09:25:25.040Z,98990.27
2022-10-30T09:26:36.582Z,98994.27
2022-10-30T09:27:57.066Z,98992.75
2022-10-30T09:29:00.300Z,98990.27
2022-10-30T09:30:33.572Z,98987.77
2022-10-30T09:31:35.542Z,98990.83
2022-10-30T09:32:38.465Z,98987.63
2022-10-30T09:33:43.690Z,98987.08
2022-10-30T09:35:30.742Z,98984.27
2022-10-30T09:36:33.099Z,98988.61
2022-10-30T09:37:39.477Z,98994.41
2022-10-30T09:38:45.012Z,98993.45
2022-10-30T09:39:46.872Z,98997.39
2022-10-30T09:41:03.715Z,98992.39
2022-10-30T09:42:26.526Z,98996.21
2022-10-30T09:43:58.015Z,98996.13
2022-10-30T09:47:08.691Z,98995.74
2022-10-30T09:48:34.536Z,98996.61
2022-10-30T09:49:56.276Z,98994.89
2022-10-30T09:51:28.555Z,98995.97
2022-10-30T09:52:52.599Z,98992.39
2022-10-30T09:54:03.408Z,98993.63
2022-10-30T09:55:32.140Z,98995.99
2022-10-30T09:57:01.183Z,98995.52
2022-10-30T09:58:33.296Z,98995.92
2022-10-30T10:00:03.284Z,98998.49
2022-10-30T10:01:34.110Z,98997.09
2022-10-30T10:02:57.798Z,98998.52
2022-10-30T10:04:32.854Z,98998.89
2022-10-30T10:05:59.180Z,98994.92
2022-10-30T10:07:40.057Z,98996.33
2022-10-30T10:09:05.992Z,98991.60
2022-10-30T10:10:42.327Z,98990.90
2022-10-30T10:12:10.728Z,98986.66
2022-10-30T10:13:35.319Z,98988.91
2022-10-30T10:14:44.098Z,98988.42
2022-10-30T10:15:54.064Z,98987.21
2022-10-30T10:16:58.883Z,98987.72
2022-10-30T10:18:04.769Z,98988.05
2022-10-30T10:19:17.136Z,98986.04
2022-10-30T10:20:37.234Z,98984.44
2022-10-30T10:22:02.197Z,98985.27
2022-10-30T10:23:18.185Z,98985.39
2022-10-30T10:24:34.092Z,98986.38
2022-10-30T10:25:43.204Z,98986.98
2022-10-30T10:27:06.609Z,98985.70
2022-10-30T10:28:21.755Z,98986.21
2022-10-30T10:30:00.724Z,98988.55
2022-10-30T10:31:23.799Z,98989.16
2022-10-30T10:32:29.087Z,98984.45
2022-10-30T10:33:59.557Z,98983.21
2022-10-30T10:35:36.770Z,98985.69
2022-10-30T10:37:12.868Z,98984.04
2022-10-30T10:38:38.206Z,98983.31
2022-10-30T10:40:16.494Z,98983.08
2022-10-30T10:41:59.870Z,98977.30
2022-10-30T10:43:12.847Z,98979.02
2022-10-30T10:44:36.119Z,98976.71
2022-10-30T10:45:56.978Z,98978.83
2022-10-30T10:47:32.263Z,98983.02
2022-10-30T10:48:52.734Z,98979.59
2022-10-30T10:50:17.315Z,98975.17
2022-10-30T10:51:32.408Z,98972.98
2022-10-30T10:52:49.487Z,98970.91
2022-10-30T10:54:11.283Z,98971.61
2022-10-30T10:55:21.401Z,98972.80
2022-10-30T10:56:32.887Z,98974.55
2022-10-30T10:57:39.704Z,98969.88
2022-10-30T10:58:57.356Z,98974.52
2022-10-30T11:00:07.643Z,98971.19
2022-10-30T11:01:17.535Z,98970.20
2022-10-30T11:02:36.417Z,98968.75
2022-10-30T11:03:58.354Z,98968.30
2022-10-30T11:05:07.249Z,98967.99
2022-10-30T11:06:27.468Z,98966.45
2022-10-30T11:07:37.177Z,98962.21
2022-10-30T11:08:38.992Z,98962.73
2022-10-30T11:09:42.542Z,98960.58
2022-10-30T11:11:04.005Z,98958.55
2022-10-30T11:12:05.962Z,98957.95
2022-10-30T11:13:14.696Z,98957.86
2022-10-30T11:14:22.554Z,98953.75
2022-10-30T11:16:18.686Z,98952.91
2022-10-30T11:17:40.583Z,98948.72
2022-10-30T11:18:44.075Z,98950.45
2022-10-30T11:19:51.720Z,98949.39
2022-10-30T11:20:59.563Z,98953.66
2022-10-30T11:22:04.114Z,98952.31
2022-10-30T11:23:42.109Z,98952.02
2022-10-30T11:24:43.927Z,98950.21
2022-10-30T11:25:45.820Z,98947.52
2022-10-30T11:26:47.493Z,98943.04
2022-10-30T11:27:59.142Z,98946.41
2022-10-30T11:29:18.579Z,98944.20
2022-10-30T11:30:23.165Z,98938.93
2022-10-30T11:31:38.752Z,98936.67
2022-10-30T11:32:40.457Z,98936.27
2022-10-30T11:33:42.149Z,98936.68
2022-10-30T11:34:43.767Z,98932.27
2022-10-30T11:35:45.641Z,98929.50
2022-10-30T11:36:49.825Z,98931.04
2022-10-30T11:38:11.418Z,98934.43
2022-10-30T11:39:25.166Z,98933.63
2022-10-30T11:40:26.890Z,98937.75
2022-10-30T11:41:28.661Z,98938.06
2022-10-30T11:42:31.092Z,98939.80
2022-10-30T11:43:33.217Z,98941.39
2022-10-30T11:45:04.730Z,98941.54
2022-10-30T11:46:11.271Z,98933.33
2022-10-30T11:47:16.115Z,98929.98
2022-10-30T11:48:29.229Z,98926.77
2022-10-30T11:49:39.610Z,98926.33
2022-10-30T11:50:48.171Z,98928.59
2022-10-30T11:51:49.865Z,98929.02
2022-10-30T11:52:57.158Z,98931.89
2022-10-30T11:53:59.143Z,98931.00
2022-10-30T11:55:15.671Z,98928.42
2022-10-30T11:56:22.305Z,98929.14
2022-10-30T11:57:45.837Z,98926.45
2022-10-30T11:58:54.203Z,98923.92
2022-10-30T12:00:02.041Z,98925.82
2022-10-30T12:01:21.639Z,98926.05
2022-10-30T12:02:29.635Z,98927.38
2022-10-30T12:03:40.565Z,98922.98
2022-10-30T12:04:42.217Z,98923.16
2022-10-30T12:05:45.272Z,98926.98
2022-10-30T12:07:17.953Z,98924.33
2022-10-30T12:08:21.495Z,98927.21
2022-10-30T12:09:23.482Z,98930.84
2022-10-30T12:10:28.257Z,98922.67
2022-10-30T12:11:35.739Z,98921.23
2022-10-30T12:12:42.699Z,98922.91
2022-10-30T12:13:45.064Z,98917.42
2022-10-30T12:14:46.902Z,98921.85
2022-10-30T12:15:51.508Z,98923.83
2022-10-30T12:16:57.588Z,98918.27
2022-10-30T12:18:02.732Z,98914.02
2022-10-30T12:19:15.212Z,98918.33
2022-10-30T12:20:17.295Z,98915.71
2022-10-30T12:21:20.507Z,98917.14
2022-10-30T12:22:32.817Z,98919.58
2022-10-30T12:23:35.449Z,98917.02
2022-10-30T12:24:43.511Z,98919.48
2022-10-30T12:25:51.890Z,98920.16
2022-10-30T12:26:56.520Z,98920.45
2022-10-30T12:28:04.725Z,98919.98
2022-10-30T12:29:15.123Z,98916.58
2022-10-30T12:30:20.984Z,98917.74
2022-10-30T12:31:31.643Z,98915.73
2022-10-30T12:33:11.682Z,98919.34
2022-10-30T12:34:31.851Z,98917.82
2022-10-30T12:35:51.138Z,98914.94
2022-10-30T12:37:39.142Z,98912.94
2022-10-30T12:38:52.032Z,98908.80
2022-10-30T12:40:05.309Z,98910.67
2022-10-30T12:41:20.738Z,98913.84
2022-10-30T12:42:24.894Z,98912.48
2022-10-30T12:43:27.644Z,98906.88
2022-10-30T12:44:39.111Z,98904.55
2022-10-30T12:45:45.518Z,98904.54
2022-10-30T12:47:02.236Z,98908.67
2022-10-30T12:48:12.561Z,98907.80
2022-10-30T12:49:38.359Z,98904.06
2022-10-30T12:50:57.098Z,98902.57
2022-10-30T12:52:07.697Z,98901.11
2022-10-30T12:53:38.460Z,98900.09
2022-10-30T12:54:55.588Z,98899.31
2022-10-30T12:56:10.572Z,98898.20
2022-10-30T12:57:35.801Z,98896.85
2022-10-30T12:58:46.959Z,98896.71
2022-10-30T13:00:10.646Z,98900.52
2022-10-30T13:01:35.874Z,98896.58
2022-10-30T13:03:06.138Z,98901.79
2022-10-30T13:04:20.326Z,98901.70
2022-10-30T13:05:28.312Z,98900.75
2022-10-30T13:06:42.309Z,98901.02
2022-10-30T13:08:21.039Z,98898.05
2022-10-30T13:09:35.906Z,98899.80
2022-10-30T13:10:47.101Z,98900.34
2022-10-30T13:12:03.336Z,98897.08
2022-10-30T13:13:15.976Z,98895.20
2022-10-30T13:14:27.594Z,98892.63
2022-10-30T13:15:36.927Z,98896.36
2022-10-30T13:16:38.684Z,98891.66
2022-10-30T13:17:40.300Z,98892.39
2022-10-30T13:18:42.056Z,98891.75
2022-10-30T13:19:46.865Z,98895.08
2022-10-30T13:21:00.713Z,98890.20
2022-10-30T13:22:15.916Z,98889.55
2022-10-30T13:23:35.820Z,98881.24
2022-10-30T13:25:02.587Z,98878.27
2022-10-30T13:26:20.768Z,98876.02
2022-10-30T13:27:56.888Z,98876.50
2022-10-30T13:29:18.871Z,98874.34
2022-10-30T13:30:23.334Z,98873.69
2022-10-30T13:31:27.929Z,98873.20
2022-10-30T13:32:58.593Z,98874.08
2022-10-30T13:34:22.779Z,98877.87
2022-10-30T13:35:46.398Z,98885.56
2022-10-30T13:37:00.137Z,98888.04